Terminal Aerodrome Forecast
Issued by NWS

Home | Current Version | Previous Version | Text Only | Print | Product List | Glossary On
Versions: 1 2 3 4 5 6 7 8 9 10 11 12 13 14
172
FTUS42 KMHX 181738
TAFOAJ
TAF
KOAJ 181738Z 1818/1918 VRB04KT P6SM SCT025 SCT200
     FM182100 VRB03KT P6SM SCT025 SCT200
      TEMPO 1821/1824 BKN025
     FM190600 00000KT 2SM BR SCT005
     FM191300 26005KT P6SM SCT250
      AMD LTD TO CLD VIS AND WIND=

USA.gov is the U.S. government's official web portal to all federal, state and local government web resources and services.